Time;durP1;ratioP1;P1;durP2;ratioP2;P2;SDS_P1;SDS_P2;PMS_P1;PMS_P2;Temp;Humidity;BMP_temperature;BMP_pressure;BME280_temperature;BME280_humidity;BME280_pressure;Samples;Min_cycle;Max_cycle;Signal;HPM_P1;HPM_P2
2023/02/16 00:01:20;;;;;;;29.50;22.80;;;3.80;99.90;;;;;;5067916;28;20482;-93
2023/02/16 00:04:00;;;;;;;29.63;22.13;;;3.70;99.90;;;;;;5073408;28;20509;-91
2023/02/16 00:06:37;;;;;;;28.97;21.37;;;3.70;99.90;;;;;;5073130;28;20454;-90
2023/02/16 00:09:14;;;;;;;33.17;22.50;;;3.70;99.90;;;;;;5072766;28;20478;-92
2023/02/16 00:14:57;;;;;;;29.17;21.77;;;3.70;99.90;;;;;;5069500;28;20444;-93
2023/02/16 00:17:41;;;;;;;25.97;20.57;;;3.60;99.90;;;;;;5070964;28;20451;-89
2023/02/16 00:20:21;;;;;;;27.50;20.63;;;3.60;99.90;;;;;;5070220;28;20446;-93
2023/02/16 00:22:57;;;;;;;27.53;21.63;;;3.60;99.90;;;;;;5072796;28;20474;-91
2023/02/16 00:25:35;;;;;;;29.93;22.47;;;3.60;99.90;;;;;;5084225;22;20891;-86
2023/02/16 00:28:12;;;;;;;33.87;23.30;;;3.60;99.90;;;;;;5066474;28;20479;-86
2023/02/16 00:30:41;;;;;;;29.97;23.70;;;3.70;99.90;;;;;;5072271;28;20466;-86
2023/02/16 00:33:15;;;;;;;31.53;22.17;;;3.70;99.90;;;;;;5073883;28;20564;-86
2023/02/16 00:35:44;;;;;;;26.23;22.17;;;3.70;99.90;;;;;;5074278;28;20493;-88
2023/02/16 00:38:13;;;;;;;29.20;22.63;;;3.70;99.90;;;;;;5069794;28;20519;-87
2023/02/16 00:40:42;;;;;;;29.37;22.90;;;3.70;99.90;;;;;;5072700;28;20462;-87
2023/02/16 00:43:26;;;;;;;29.10;23.40;;;3.70;99.90;;;;;;5075434;28;20460;-86
2023/02/16 00:45:55;;;;;;;29.43;22.90;;;3.80;99.90;;;;;;5067890;28;20509;-87
2023/02/16 00:48:24;;;;;;;30.93;23.80;;;3.80;99.90;;;;;;5073257;28;20486;-87
2023/02/16 00:50:52;;;;;;;31.00;24.17;;;3.90;99.90;;;;;;5072122;28;20460;-88
2023/02/16 00:53:20;;;;;;;32.93;25.77;;;4.00;99.90;;;;;;5071572;28;20484;-87
2023/02/16 00:55:49;;;;;;;32.33;23.57;;;4.00;99.90;;;;;;5069667;28;20555;-86
2023/02/16 00:58:24;;;;;;;32.70;25.70;;;4.00;99.90;;;;;;5068032;28;20521;-85
2023/02/16 01:00:55;;;;;;;33.87;25.30;;;4.10;99.90;;;;;;5069344;28;20457;-89
2023/02/16 01:03:25;;;;;;;33.83;25.77;;;4.10;99.90;;;;;;5069215;28;20463;-89
2023/02/16 01:11:24;;;;;;;29.37;24.60;;;4.00;99.90;;;;;;5070636;28;20477;-86
2023/02/16 01:13:57;;;;;;;33.80;24.83;;;4.00;99.90;;;;;;5065884;28;20483;-88
2023/02/16 01:16:33;;;;;;;33.77;25.40;;;4.00;99.90;;;;;;5063353;28;20856;-86
2023/02/16 01:19:03;;;;;;;32.83;24.57;;;4.00;99.90;;;;;;5067827;28;20492;-87
2023/02/16 01:21:31;;;;;;;34.90;28.00;;;4.00;99.90;;;;;;5069595;28;20469;-87
2023/02/16 01:23:59;;;;;;;34.13;26.67;;;4.10;99.90;;;;;;5068354;28;20941;-90
2023/02/16 01:26:27;;;;;;;34.63;26.80;;;4.10;99.90;;;;;;5064001;28;20477;-87
2023/02/16 01:28:57;;;;;;;35.67;27.33;;;4.10;99.90;;;;;;5064534;28;20862;-86
2023/02/16 01:31:25;;;;;;;41.70;27.90;;;4.20;99.90;;;;;;5070457;28;20461;-88
2023/02/16 01:33:53;;;;;;;37.57;27.77;;;4.20;99.90;;;;;;5067378;28;20584;-86
2023/02/16 01:36:25;;;;;;;36.67;28.17;;;4.20;99.90;;;;;;5071003;28;20493;-87
2023/02/16 01:38:53;;;;;;;34.90;28.40;;;4.30;99.90;;;;;;5066272;28;20493;-89
2023/02/16 01:41:35;;;;;;;38.23;28.07;;;4.30;99.90;;;;;;5068222;28;20554;-87
2023/02/16 01:44:09;;;;;;;39.10;30.07;;;4.30;99.90;;;;;;5072120;28;20454;-89
2023/02/16 01:46:44;;;;;;;40.97;30.03;;;4.40;99.90;;;;;;5075021;28;20484;-88
2023/02/16 01:49:13;;;;;;;34.13;28.20;;;4.40;99.90;;;;;;5079065;28;20477;-88
2023/02/16 01:51:51;;;;;;;40.00;30.67;;;4.40;99.90;;;;;;5082365;28;20491;-88
2023/02/16 01:54:38;;;;;;;37.43;29.83;;;4.50;99.90;;;;;;5077412;28;20486;-92
2023/02/16 01:57:20;;;;;;;39.00;29.43;;;4.50;99.90;;;;;;5078884;28;20468;-87
2023/02/16 02:00:15;;;;;;;39.73;29.90;;;4.60;99.90;;;;;;5069534;28;20481;-87
2023/02/16 02:02:52;;;;;;;39.57;31.20;;;4.60;99.90;;;;;;5069771;28;20475;-87
2023/02/16 02:05:36;;;;;;;40.13;30.10;;;4.70;99.90;;;;;;5064535;28;20488;-87
2023/02/16 02:08:14;;;;;;;43.20;31.23;;;4.70;99.90;;;;;;5068075;28;20477;-92
2023/02/16 02:10:53;;;;;;;41.20;28.90;;;4.70;99.90;;;;;;5067226;28;20461;-87
2023/02/16 02:13:26;;;;;;;37.47;29.13;;;4.70;99.90;;;;;;5065626;28;20485;-86
2023/02/16 02:15:59;;;;;;;36.70;28.50;;;4.70;99.90;;;;;;5066207;28;20485;-88
2023/02/16 02:18:27;;;;;;;42.23;31.47;;;4.70;99.90;;;;;;5054820;28;20493;-87
2023/02/16 02:24:26;;;;;;;37.87;28.73;;;4.70;99.90;;;;;;5065283;28;20465;-87
2023/02/16 02:27:20;;;;;;;43.70;30.87;;;4.70;99.90;;;;;;5067576;28;20469;-88
2023/02/16 02:30:09;;;;;;;37.17;30.27;;;4.70;99.90;;;;;;5066184;28;20512;-88
2023/02/16 02:33:06;;;;;;;39.30;28.93;;;4.70;99.90;;;;;;5066960;28;20470;-86
2023/02/16 02:35:47;;;;;;;41.93;30.63;;;4.70;99.90;;;;;;5071490;28;20547;-85
2023/02/16 02:38:22;;;;;;;39.10;30.97;;;4.80;99.90;;;;;;5067492;28;20492;-87
2023/02/16 02:40:59;;;;;;;40.00;30.77;;;4.80;99.90;;;;;;5068684;28;20457;-90
2023/02/16 02:43:37;;;;;;;41.47;31.07;;;4.80;99.90;;;;;;5068922;28;20457;-86
2023/02/16 02:46:09;;;;;;;38.33;30.40;;;4.80;99.90;;;;;;5067168;28;20483;-90
2023/02/16 02:48:37;;;;;;;41.53;31.27;;;4.80;99.90;;;;;;5067847;28;20504;-87
2023/02/16 02:51:30;;;;;;;45.03;32.70;;;4.80;99.90;;;;;;5068942;28;20466;-87
2023/02/16 03:02:28;;;;;;;46.20;31.67;;;4.90;99.90;;;;;;5060374;28;20506;-86
2023/02/16 03:04:59;;;;;;;41.73;30.30;;;4.90;99.90;;;;;;5069073;28;20898;-87
2023/02/16 03:13:02;;;;;;;36.03;29.33;;;4.80;99.90;;;;;;5068901;28;20466;-91
2023/02/16 03:15:33;;;;;;;38.37;30.87;;;4.80;99.90;;;;;;5072546;28;20506;-86
2023/02/16 03:29:21;;;;;;;37.60;28.90;;;4.90;99.90;;;;;;5081799;28;20491;-88
2023/02/16 03:31:54;;;;;;;39.90;32.97;;;4.90;99.90;;;;;;5083483;28;20514;-86
2023/02/16 03:34:23;;;;;;;41.50;30.70;;;4.90;99.90;;;;;;5083335;28;20485;-87
2023/02/16 03:36:57;;;;;;;42.13;30.70;;;4.90;99.90;;;;;;5078791;28;20466;-87
2023/02/16 03:39:29;;;;;;;38.33;30.77;;;4.90;99.90;;;;;;5076114;28;20477;-88
2023/02/16 03:41:58;;;;;;;38.80;30.47;;;4.90;99.90;;;;;;5070538;28;20469;-86
2023/02/16 03:44:27;;;;;;;39.17;31.63;;;4.90;99.90;;;;;;5075588;28;20556;-87
2023/02/16 03:46:57;;;;;;;37.93;30.30;;;4.90;99.90;;;;;;5069922;28;20493;-86
2023/02/16 03:49:28;;;;;;;39.63;30.97;;;4.90;99.90;;;;;;5073116;28;20565;-86
2023/02/16 03:51:57;;;;;;;36.77;29.90;;;4.90;99.90;;;;;;5071778;28;20553;-91
2023/02/16 03:54:25;;;;;;;39.60;30.33;;;4.90;99.90;;;;;;5072371;28;20504;-86
2023/02/16 03:56:54;;;;;;;37.23;29.97;;;4.90;99.90;;;;;;5076389;28;20463;-88
2023/02/16 03:59:22;;;;;;;38.73;29.70;;;4.90;99.90;;;;;;5068084;28;20911;-87
2023/02/16 04:01:53;;;;;;;39.40;29.93;;;4.90;99.90;;;;;;5069862;28;20529;-86
2023/02/16 04:04:24;;;;;;;36.43;29.73;;;4.90;99.90;;;;;;5066993;28;20941;-87
2023/02/16 04:06:52;;;;;;;38.50;30.40;;;4.90;99.90;;;;;;5072284;28;20508;-89
2023/02/16 04:09:21;;;;;;;40.17;30.33;;;4.90;99.90;;;;;;5070061;28;20485;-88
2023/02/16 04:14:41;;;;;;;37.63;29.70;;;4.80;99.90;;;;;;5069659;28;20490;-87
2023/02/16 04:17:10;;;;;;;38.23;30.20;;;4.90;99.90;;;;;;5064604;28;20493;-88
2023/02/16 04:19:41;;;;;;;34.63;29.00;;;4.80;99.90;;;;;;5072651;28;20565;-91
2023/02/16 04:22:09;;;;;;;38.20;31.03;;;4.80;99.90;;;;;;5068778;28;20561;-87
2023/02/16 04:24:37;;;;;;;36.30;28.47;;;4.80;99.90;;;;;;5067470;28;20600;-87
2023/02/16 04:27:06;;;;;;;36.30;28.63;;;4.80;99.90;;;;;;5071712;28;20503;-89
2023/02/16 04:29:39;;;;;;;36.70;30.43;;;4.80;99.90;;;;;;5074892;28;21012;-88
2023/02/16 04:32:08;;;;;;;39.50;30.27;;;4.80;99.90;;;;;;5075693;28;20461;-86
2023/02/16 04:34:36;;;;;;;37.40;28.87;;;4.80;99.90;;;;;;5080388;28;20485;-88
2023/02/16 04:37:09;;;;;;;34.87;28.73;;;4.80;99.90;;;;;;5076002;28;20468;-86
2023/02/16 04:39:37;;;;;;;34.23;28.13;;;4.80;99.90;;;;;;5074577;28;20482;-87
2023/02/16 04:42:07;;;;;;;38.30;29.30;;;4.80;99.90;;;;;;5078283;28;20468;-87
2023/02/16 04:44:36;;;;;;;38.73;29.70;;;4.70;99.90;;;;;;5075552;28;20569;-87
2023/02/16 04:47:05;;;;;;;37.63;28.73;;;4.70;99.90;;;;;;5071279;28;20465;-88
2023/02/16 04:49:33;;;;;;;36.90;28.27;;;4.70;99.90;;;;;;5069491;28;20613;-86
2023/02/16 04:52:03;;;;;;;37.00;28.70;;;4.70;99.90;;;;;;5075672;28;21043;-87
2023/02/16 04:54:33;;;;;;;34.53;29.10;;;4.70;99.90;;;;;;5075140;28;20936;-87
2023/02/16 04:57:01;;;;;;;36.70;28.97;;;4.70;99.90;;;;;;5073993;28;20473;-87
2023/02/16 04:59:33;;;;;;;35.90;28.87;;;4.70;99.90;;;;;;5073243;28;20486;-86
2023/02/16 05:02:02;;;;;;;43.87;30.70;;;4.70;99.90;;;;;;5071938;28;20458;-92
2023/02/16 05:04:30;;;;;;;38.77;29.93;;;4.70;99.90;;;;;;5081141;28;20498;-86
2023/02/16 05:06:59;;;;;;;36.43;28.10;;;4.70;99.90;;;;;;5071434;28;20470;-85
2023/02/16 05:09:27;;;;;;;40.00;29.07;;;4.70;99.90;;;;;;5069276;28;20489;-86
2023/02/16 05:14:43;;;;;;;32.50;27.90;;;4.70;99.90;;;;;;5075760;28;20488;-87
2023/02/16 05:17:15;;;;;;;37.37;28.53;;;4.60;99.90;;;;;;5067013;28;20510;-86
2023/02/16 05:19:51;;;;;;;35.53;28.50;;;4.70;99.90;;;;;;5072974;28;20513;-86
2023/02/16 05:22:19;;;;;;;36.63;28.57;;;4.70;99.90;;;;;;5073715;28;21010;-86
2023/02/16 05:24:48;;;;;;;34.40;27.80;;;4.70;99.90;;;;;;5072877;28;20496;-88
2023/02/16 05:27:19;;;;;;;39.40;29.60;;;4.70;99.90;;;;;;5071260;28;20798;-87
2023/02/16 05:29:48;;;;;;;33.43;29.23;;;4.70;99.90;;;;;;5072463;28;21035;-86
2023/02/16 05:32:17;;;;;;;36.13;29.80;;;4.70;99.90;;;;;;5070048;28;20472;-86
2023/02/16 05:34:45;;;;;;;39.60;29.57;;;4.70;99.90;;;;;;5067925;28;20534;-86
2023/02/16 05:37:14;;;;;;;36.90;27.73;;;4.70;99.90;;;;;;5071198;28;20477;-87
2023/02/16 05:39:43;;;;;;;35.33;28.30;;;4.70;99.90;;;;;;5065566;28;20591;-86
2023/02/16 05:42:12;;;;;;;38.50;29.37;;;4.70;99.90;;;;;;5064352;28;20458;-86
2023/02/16 05:44:42;;;;;;;34.77;26.43;;;4.80;99.90;;;;;;5069671;28;20504;-91
2023/02/16 05:47:10;;;;;;;36.43;28.90;;;4.80;99.90;;;;;;5066054;28;20461;-89
2023/02/16 05:49:39;;;;;;;34.20;27.00;;;4.70;99.90;;;;;;5068296;28;20493;-87
2023/02/16 05:52:07;;;;;;;35.90;28.27;;;4.70;99.90;;;;;;5067549;28;20561;-86
2023/02/16 05:54:37;;;;;;;33.10;26.80;;;4.70;99.90;;;;;;5062204;28;20931;-86
2023/02/16 06:00:32;;;;;;;35.60;27.87;;;4.70;99.90;;;;;;5051054;28;20477;-86
2023/02/16 06:06:24;;;;;;;34.90;26.70;;;4.70;99.90;;;;;;5053414;28;20485;-87
2023/02/16 06:08:52;;;;;;;36.93;27.93;;;4.70;99.90;;;;;;5062102;28;20490;-88
2023/02/16 06:11:35;;;;;;;39.63;29.43;;;4.70;99.90;;;;;;5064867;28;20462;-89
2023/02/16 06:14:12;;;;;;;38.47;29.80;;;4.70;99.90;;;;;;5055044;28;20976;-86
2023/02/16 06:16:44;;;;;;;37.23;28.90;;;4.70;99.90;;;;;;5061235;28;20495;-87
2023/02/16 06:19:14;;;;;;;36.70;29.47;;;4.70;99.90;;;;;;5059656;28;20489;-87
2023/02/16 06:21:44;;;;;;;38.77;29.57;;;4.70;99.90;;;;;;5062008;28;20477;-87
2023/02/16 06:24:13;;;;;;;39.70;29.37;;;4.80;99.90;;;;;;5064321;28;20835;-90
2023/02/16 06:29:33;;;;;;;37.07;29.37;;;4.70;99.90;;;;;;5061031;28;20485;-88
2023/02/16 06:32:02;;;;;;;38.87;29.80;;;4.70;99.90;;;;;;5064598;28;20493;-90
2023/02/16 06:39:52;;;;;;;41.40;30.50;;;4.80;99.90;;;;;;5032037;28;20485;-91
2023/02/16 06:42:23;;;;;;;36.20;28.43;;;4.80;99.90;;;;;;5034725;28;20462;-92
2023/02/16 06:44:52;;;;;;;38.77;29.53;;;4.80;99.90;;;;;;5047600;28;20486;-90
2023/02/16 06:47:21;;;;;;;37.30;30.13;;;4.80;99.90;;;;;;5046824;28;20549;-91
2023/02/16 06:49:50;;;;;;;36.73;29.17;;;4.80;99.90;;;;;;5050399;28;20490;-93
2023/02/16 06:52:18;;;;;;;37.43;30.17;;;4.80;99.90;;;;;;5043627;28;21049;-89
2023/02/16 06:54:46;;;;;;;40.83;31.57;;;4.80;99.90;;;;;;5048359;28;20486;-91
2023/02/16 06:57:14;;;;;;;35.80;29.90;;;4.90;99.90;;;;;;5061293;28;20458;-91
2023/02/16 06:59:42;;;;;;;39.63;31.00;;;4.90;99.90;;;;;;5048921;28;20506;-91
2023/02/16 07:02:11;;;;;;;39.90;32.30;;;4.90;99.90;;;;;;5051011;28;20486;-91
2023/02/16 07:04:41;;;;;;;43.90;31.67;;;4.90;99.90;;;;;;5046119;28;20543;-91
2023/02/16 07:07:10;;;;;;;42.97;32.50;;;5.00;99.90;;;;;;5056720;28;20453;-90
2023/02/16 07:09:41;;;;;;;45.40;32.23;;;5.00;99.90;;;;;;5051355;28;20578;-91
2023/02/16 07:12:09;;;;;;;42.40;32.40;;;5.00;99.90;;;;;;5048139;28;20561;-91
2023/02/16 07:14:38;;;;;;;40.03;31.77;;;5.00;99.90;;;;;;5046795;28;20493;-91
2023/02/16 07:17:06;;;;;;;43.20;32.20;;;5.00;99.90;;;;;;5047227;28;20490;-91
2023/02/16 07:19:34;;;;;;;42.63;33.53;;;5.00;99.90;;;;;;5051046;28;20482;-91
2023/02/16 07:22:04;;;;;;;41.80;32.10;;;5.10;99.90;;;;;;5046223;28;20458;-91
2023/02/16 07:24:32;;;;;;;41.07;32.40;;;5.10;99.90;;;;;;5051089;28;21012;-92
2023/02/16 07:27:00;;;;;;;39.83;32.07;;;5.10;99.90;;;;;;5053275;28;20541;-91
2023/02/16 07:29:29;;;;;;;38.33;31.10;;;5.10;99.90;;;;;;5059093;28;20490;-92
2023/02/16 07:31:57;;;;;;;43.30;31.30;;;5.10;99.90;;;;;;5054826;28;20554;-91
2023/02/16 07:34:26;;;;;;;43.50;34.30;;;5.10;99.90;;;;;;5049078;28;20557;-92
2023/02/16 07:36:54;;;;;;;42.83;33.07;;;5.20;99.90;;;;;;5051860;28;20491;-91
2023/02/16 07:39:24;;;;;;;40.73;32.77;;;5.20;99.90;;;;;;5053962;28;20478;-92
2023/02/16 07:41:52;;;;;;;45.50;35.00;;;5.20;99.90;;;;;;5061212;28;20486;-93
2023/02/16 07:44:21;;;;;;;43.00;33.80;;;5.30;99.90;;;;;;5051122;28;20536;-91
2023/02/16 07:46:49;;;;;;;42.30;32.60;;;5.30;99.90;;;;;;5059415;28;20461;-93
2023/02/16 07:49:17;;;;;;;42.70;33.70;;;5.30;99.90;;;;;;5056498;28;20478;-92
2023/02/16 07:51:45;;;;;;;43.10;33.70;;;5.40;99.90;;;;;;5054796;28;20500;-92
2023/02/16 07:54:13;;;;;;;43.60;33.33;;;5.40;99.90;;;;;;5055477;28;20482;-92
2023/02/16 07:56:43;;;;;;;43.40;34.57;;;5.40;99.90;;;;;;5054815;28;20567;-92
2023/02/16 07:59:15;;;;;;;47.57;33.70;;;5.50;99.90;;;;;;5046905;28;20497;-92
2023/02/16 08:01:43;;;;;;;40.60;31.40;;;5.50;99.90;;;;;;5053045;28;20478;-91
2023/02/16 08:04:12;;;;;;;42.73;32.97;;;5.50;99.90;;;;;;5065767;28;20490;-93
2023/02/16 08:06:40;;;;;;;38.37;31.10;;;5.50;99.90;;;;;;5057663;28;20485;-93
2023/02/16 08:09:08;;;;;;;40.87;34.30;;;5.60;99.90;;;;;;5048188;28;20942;-93
2023/02/16 08:11:37;;;;;;;40.10;31.80;;;5.60;99.90;;;;;;5052695;28;20501;-91
2023/02/16 08:14:07;;;;;;;44.93;34.67;;;5.70;99.90;;;;;;5057638;28;20511;-93
2023/02/16 08:16:35;;;;;;;41.40;32.13;;;5.70;99.90;;;;;;5078078;28;20569;-92
2023/02/16 08:19:03;;;;;;;41.30;31.87;;;5.70;99.90;;;;;;5062734;28;20466;-90
2023/02/16 08:21:33;;;;;;;41.63;32.87;;;5.70;99.90;;;;;;5065495;28;20463;-92
2023/02/16 08:24:03;;;;;;;42.63;35.83;;;5.70;99.90;;;;;;5074383;28;20462;-92
2023/02/16 08:26:37;;;;;;;41.67;33.13;;;5.70;99.90;;;;;;5063168;28;20477;-93
2023/02/16 08:29:11;;;;;;;45.27;34.67;;;5.80;99.90;;;;;;5065535;28;20856;-92
2023/02/16 08:31:40;;;;;;;43.73;33.20;;;5.80;99.90;;;;;;5052036;28;20526;-93
2023/02/16 08:34:10;;;;;;;42.57;33.13;;;5.80;99.90;;;;;;5056313;28;20479;-92
2023/02/16 08:36:39;;;;;;;42.50;33.17;;;5.90;99.90;;;;;;5050701;28;20484;-92
2023/02/16 08:39:13;;;;;;;40.80;33.80;;;5.90;99.90;;;;;;5072039;28;20539;-92
2023/02/16 08:41:44;;;;;;;40.03;32.87;;;6.00;99.90;;;;;;5070764;28;20457;-92
2023/02/16 08:44:16;;;;;;;43.13;33.30;;;6.00;99.90;;;;;;5050219;28;20490;-91
2023/02/16 08:46:46;;;;;;;42.60;32.80;;;6.00;99.90;;;;;;5047924;28;20457;-90
2023/02/16 08:49:17;;;;;;;45.30;35.10;;;6.10;99.90;;;;;;5060762;28;20490;-93
2023/02/16 08:51:47;;;;;;;43.57;33.47;;;6.20;99.90;;;;;;5047689;28;20620;-92
2023/02/16 08:54:17;;;;;;;40.83;33.47;;;6.20;99.90;;;;;;5067415;28;20485;-92
2023/02/16 08:56:48;;;;;;;44.57;34.67;;;6.30;99.90;;;;;;5062041;28;20489;-91
2023/02/16 08:59:21;;;;;;;39.17;32.80;;;6.30;99.90;;;;;;5048831;28;20490;-91
2023/02/16 09:01:52;;;;;;;41.30;32.60;;;6.40;99.90;;;;;;5056459;28;20485;-94
2023/02/16 09:04:20;;;;;;;43.53;33.00;;;6.40;99.90;;;;;;5061647;28;20518;-92
2023/02/16 09:06:49;;;;;;;38.60;33.30;;;6.50;99.90;;;;;;5047470;28;20556;-92
2023/02/16 09:09:18;;;;;;;40.10;31.97;;;6.50;99.90;;;;;;5057332;28;20509;-92
2023/02/16 09:11:46;;;;;;;39.20;32.30;;;6.50;99.90;;;;;;5064354;28;20489;-92
2023/02/16 09:14:15;;;;;;;37.63;31.50;;;6.60;99.90;;;;;;5058724;28;20482;-92
2023/02/16 09:16:48;;;;;;;40.70;32.07;;;6.70;99.90;;;;;;5053907;28;20486;-92
2023/02/16 09:19:23;;;;;;;40.43;32.73;;;6.70;99.90;;;;;;5038427;28;20497;-91
2023/02/16 09:21:55;;;;;;;47.30;33.67;;;6.70;99.90;;;;;;5044579;28;21024;-91
2023/02/16 09:24:24;;;;;;;37.23;32.40;;;6.70;99.90;;;;;;5057007;28;20490;-92
2023/02/16 09:26:52;;;;;;;42.53;33.67;;;6.70;99.90;;;;;;5057024;28;20462;-92
2023/02/16 09:29:21;;;;;;;42.37;33.40;;;6.80;99.90;;;;;;5054693;28;20516;-92
2023/02/16 09:31:51;;;;;;;41.10;34.90;;;6.80;99.90;;;;;;5056344;28;20557;-91
2023/02/16 09:34:22;;;;;;;41.17;33.83;;;6.80;99.90;;;;;;5067420;28;20478;-92
2023/02/16 09:36:51;;;;;;;41.00;32.30;;;6.80;99.90;;;;;;5056477;28;20486;-92
2023/02/16 09:39:20;;;;;;;41.77;33.80;;;6.90;99.90;;;;;;5067826;28;20501;-92
2023/02/16 09:42:02;;;;;;;37.67;31.30;;;6.90;99.90;;;;;;5057677;28;20496;-92
2023/02/16 09:44:47;;;;;;;39.43;32.37;;;6.90;99.90;;;;;;5056410;28;20490;-92
2023/02/16 09:47:23;;;;;;;41.73;34.50;;;6.90;99.90;;;;;;5052238;28;20465;-92
2023/02/16 09:49:55;;;;;;;41.50;34.50;;;6.90;99.90;;;;;;5046405;28;20481;-93
2023/02/16 09:52:31;;;;;;;40.63;33.40;;;6.90;99.90;;;;;;5066510;28;20460;-92
2023/02/16 09:55:07;;;;;;;42.33;32.60;;;6.90;99.90;;;;;;5080346;28;20549;-92
2023/02/16 09:57:54;;;;;;;41.97;34.57;;;6.90;99.90;;;;;;5072109;28;20500;-91
2023/02/16 10:00:38;;;;;;;40.47;33.63;;;7.00;99.90;;;;;;5059794;28;21022;-92
2023/02/16 10:03:22;;;;;;;41.87;32.73;;;7.10;99.90;;;;;;5051082;28;20486;-92
2023/02/16 10:05:59;;;;;;;41.97;34.17;;;7.20;99.90;;;;;;5055168;28;20470;-92
2023/02/16 10:08:33;;;;;;;38.43;33.53;;;7.30;99.90;;;;;;5051495;28;20487;-92
2023/02/16 10:11:36;;;;;;;39.73;33.50;;;7.40;99.90;;;;;;5065929;28;20969;-92
2023/02/16 10:13:59;;;;;;;44.00;34.30;;;7.40;99.90;;;;;;5048534;28;20511;-92
2023/02/16 10:16:36;;;;;;;42.40;34.53;;;7.40;99.90;;;;;;5053308;28;20523;-92
2023/02/16 10:19:16;;;;;;;40.50;33.77;;;7.50;99.90;;;;;;5057977;28;20481;-92
2023/02/16 10:21:50;;;;;;;43.57;35.43;;;7.50;99.90;;;;;;5054356;28;20462;-93
2023/02/16 10:24:19;;;;;;;38.90;33.80;;;7.50;99.90;;;;;;5058549;28;20903;-91
2023/02/16 10:26:52;;;;;;;38.70;33.40;;;7.50;99.90;;;;;;5061797;28;20461;-91
2023/02/16 10:29:22;;;;;;;45.03;36.13;;;7.50;99.90;;;;;;5042935;28;20927;-91
2023/02/16 10:32:00;;;;;;;43.53;35.00;;;7.40;99.90;;;;;;5050217;28;20458;-92
2023/02/16 10:34:45;;;;;;;42.67;35.87;;;7.40;99.90;;;;;;5047414;28;20510;-91
2023/02/16 10:37:28;;;;;;;41.63;35.60;;;7.40;99.90;;;;;;5050847;28;20849;-89
2023/02/16 10:40:24;;;;;;;39.80;34.10;;;7.40;99.90;;;;;;5054654;28;20852;-91
2023/02/16 10:42:58;;;;;;;40.00;33.40;;;7.40;99.90;;;;;;5062628;28;20496;-90
2023/02/16 10:45:33;;;;;;;45.00;34.87;;;7.40;99.90;;;;;;5053285;28;20557;-92
2023/02/16 10:48:01;;;;;;;41.50;34.50;;;7.40;99.90;;;;;;5055885;28;20477;-92
2023/02/16 10:50:39;;;;;;;38.80;33.40;;;7.40;99.90;;;;;;5059690;28;20552;-92
2023/02/16 10:53:14;;;;;;;45.40;35.33;;;7.40;99.90;;;;;;5046458;28;20572;-92
2023/02/16 10:55:45;;;;;;;44.13;35.30;;;7.50;99.90;;;;;;5063434;28;20497;-91
2023/02/16 10:58:20;;;;;;;41.90;34.10;;;7.50;99.90;;;;;;5066964;28;20531;-91
2023/02/16 11:00:57;;;;;;;41.47;34.50;;;7.50;99.90;;;;;;5055237;28;20465;-90
2023/02/16 11:03:32;;;;;;;43.03;34.70;;;7.60;99.90;;;;;;5047045;28;20514;-91
2023/02/16 11:06:15;;;;;;;41.77;33.77;;;7.60;99.90;;;;;;5051838;28;20466;-90
2023/02/16 11:08:56;;;;;;;39.43;34.10;;;7.60;99.90;;;;;;5057873;28;20519;-90
2023/02/16 11:11:26;;;;;;;40.60;33.53;;;7.70;99.90;;;;;;5054681;28;20561;-91
2023/02/16 11:14:02;;;;;;;43.93;35.20;;;7.80;99.90;;;;;;5052756;28;20536;-90
2023/02/16 11:16:34;;;;;;;43.67;35.40;;;7.80;99.90;;;;;;5054124;28;20459;-92
2023/02/16 11:23:30;;;;;;;38.80;33.00;;;7.90;99.90;;;;;;4941523;29;20464;-91
2023/02/16 11:26:35;;;;;;;42.33;33.17;;;7.90;99.90;;;;;;4883651;29;20499;-91
2023/02/16 11:29:17;;;;;;;40.67;34.30;;;8.00;99.90;;;;;;4868338;29;20494;-92
2023/02/16 11:31:46;;;;;;;42.70;35.27;;;8.00;99.90;;;;;;4882953;29;21087;-92
2023/02/16 11:34:32;;;;;;;43.60;35.23;;;8.00;99.90;;;;;;4885724;29;20502;-91
2023/02/16 11:37:04;;;;;;;40.47;34.30;;;8.10;99.90;;;;;;4882850;29;20462;-90
2023/02/16 11:39:37;;;;;;;40.53;33.83;;;8.10;99.90;;;;;;4882620;29;20585;-91
2023/02/16 11:42:08;;;;;;;42.37;33.50;;;8.10;99.90;;;;;;4883807;29;20521;-90
2023/02/16 11:44:39;;;;;;;42.50;35.60;;;8.20;99.90;;;;;;4875068;29;20640;-92
2023/02/16 11:47:09;;;;;;;42.07;35.07;;;8.20;99.90;;;;;;4880897;29;20569;-90
2023/02/16 11:49:40;;;;;;;42.97;35.53;;;8.20;99.90;;;;;;4876713;29;20540;-91
2023/02/16 11:52:25;;;;;;;42.27;35.50;;;8.20;99.90;;;;;;4879090;29;20561;-91
2023/02/16 11:54:56;;;;;;;42.00;34.73;;;8.20;99.90;;;;;;4889039;29;20486;-90
2023/02/16 11:57:30;;;;;;;39.07;34.00;;;8.20;99.90;;;;;;4912502;29;20524;-90
2023/02/16 12:00:03;;;;;;;43.00;35.07;;;8.20;99.90;;;;;;5048392;28;20482;-91
2023/02/16 12:03:06;;;;;;;43.00;36.97;;;8.20;99.90;;;;;;5057675;28;20461;-92
2023/02/16 12:05:53;;;;;;;42.00;35.93;;;8.20;99.90;;;;;;5044198;28;21060;-90
2023/02/16 12:09:10;;;;;;;44.27;34.90;;;8.30;99.90;;;;;;5042403;28;20495;-91
2023/02/16 12:11:58;;;;;;;44.80;35.80;;;8.20;99.90;;;;;;5062708;28;20573;-93
2023/02/16 12:14:41;;;;;;;43.20;34.90;;;8.30;99.90;;;;;;5045167;28;20510;-91
2023/02/16 12:17:33;;;;;;;46.50;36.10;;;8.30;99.90;;;;;;5058985;28;20463;-92
2023/02/16 12:20:14;;;;;;;43.00;36.10;;;8.30;99.90;;;;;;5049342;28;20494;-92
2023/02/16 12:22:47;;;;;;;45.03;36.93;;;8.30;99.90;;;;;;5057663;28;20507;-91
2023/02/16 12:25:32;;;;;;;49.67;37.37;;;8.30;99.90;;;;;;5067155;28;20515;-90
2023/02/16 12:28:12;;;;;;;54.37;38.20;;;8.30;99.90;;;;;;5042716;28;20494;-92
2023/02/16 12:31:08;;;;;;;47.50;37.07;;;8.30;99.90;;;;;;5067307;28;20463;-92
2023/02/16 12:33:51;;;;;;;48.80;36.37;;;8.30;99.90;;;;;;5061743;28;20557;-93
2023/02/16 12:36:45;;;;;;;47.23;37.73;;;8.30;99.90;;;;;;5053001;28;20498;-93
2023/02/16 12:39:20;;;;;;;47.97;37.60;;;8.30;99.90;;;;;;5059417;28;20483;-93
2023/02/16 12:42:03;;;;;;;47.90;37.27;;;8.40;99.90;;;;;;5056571;28;20479;-93
2023/02/16 15:03:50;;;;;;;44.97;37.43;;;8.70;99.90;;;;;;5092965;22;20877;-82
2023/02/16 18:55:23;;;;;;;43.27;31.83;;;8.00;99.90;;;;;;4957985;28;20476;-89
2023/02/16 18:58:08;;;;;;;38.90;31.10;;;8.00;99.90;;;;;;4981718;28;20458;-90
2023/02/16 19:01:23;;;;;;;42.77;32.90;;;8.00;99.90;;;;;;4985002;28;20474;-89
2023/02/16 19:04:18;;;;;;;37.63;31.70;;;8.00;99.90;;;;;;4977856;28;20540;-93
2023/02/16 19:07:11;;;;;;;46.43;32.63;;;8.00;99.90;;;;;;4992251;28;20461;-90
2023/02/16 19:13:02;;;;;;;42.20;32.60;;;8.00;99.90;;;;;;4985390;28;20450;-91
2023/02/16 19:16:08;;;;;;;40.10;31.67;;;8.00;99.90;;;;;;4987980;28;20500;-90
2023/02/16 19:18:53;;;;;;;42.90;30.93;;;8.00;99.90;;;;;;4976009;28;20482;-92
2023/02/16 19:22:17;;;;;;;38.23;32.63;;;8.00;99.90;;;;;;4984095;28;20473;-91
2023/02/16 19:25:28;;;;;;;;;;;;;;;;;;;;;
2023/02/16 19:28:25;;;;;;;43.87;32.97;;;8.00;99.90;;;;;;4985487;28;20454;-89
2023/02/16 19:31:47;;;;;;;41.27;34.47;;;8.00;99.90;;;;;;4978171;28;20466;-89
2023/02/16 19:34:40;;;;;;;41.70;32.90;;;8.00;99.90;;;;;;4967114;28;20458;-90
2023/02/16 19:37:21;;;;;;;42.67;34.30;;;8.00;99.90;;;;;;4976941;28;20464;-89
2023/02/16 19:40:19;;;;;;;46.03;35.93;;;8.00;99.90;;;;;;4977927;28;20472;-90
2023/02/16 19:55:03;;;;;;;49.47;39.10;;;8.00;99.90;;;;;;4769145;29;20476;-91
2023/02/16 20:08:19;;;;;;;57.10;42.20;;;8.00;99.90;;;;;;5031433;28;20443;-90
2023/02/16 20:30:08;;;;;;;54.97;42.63;;;8.00;99.90;;;;;;4767421;29;20472;-90
2023/02/16 20:33:21;;;;;;;53.40;40.60;;;8.10;99.90;;;;;;4771669;29;20471;-92
2023/02/16 20:36:30;;;;;;;49.87;40.37;;;8.10;99.90;;;;;;4772348;29;20470;-92
2023/02/16 20:39:07;;;;;;;52.43;41.50;;;8.10;99.90;;;;;;4770261;29;20680;-90
2023/02/16 20:41:38;;;;;;;50.83;43.70;;;8.10;99.90;;;;;;4771597;29;20552;-90
2023/02/16 20:44:16;;;;;;;58.13;44.60;;;8.10;99.90;;;;;;4772028;29;20565;-92
2023/02/16 20:46:55;;;;;;;55.33;43.63;;;8.00;99.90;;;;;;4771534;29;20465;-91
2023/02/16 20:49:29;;;;;;;53.47;44.83;;;8.10;99.90;;;;;;4795927;29;20469;-88
2023/02/16 20:52:11;;;;;;;57.50;45.00;;;8.00;99.90;;;;;;4894601;29;20512;-91
2023/02/16 20:54:45;;;;;;;60.87;46.37;;;8.00;99.90;;;;;;4913380;29;20483;-90
2023/02/16 20:57:21;;;;;;;56.97;45.67;;;8.00;99.90;;;;;;4911957;29;20467;-91
2023/02/16 20:59:55;;;;;;;62.50;46.80;;;8.00;99.90;;;;;;4982377;28;20479;-91
2023/02/16 21:02:24;;;;;;;55.97;46.37;;;8.00;99.90;;;;;;5015778;28;20453;-89
2023/02/16 21:04:53;;;;;;;60.50;46.17;;;8.00;99.90;;;;;;5023933;28;20501;-90
2023/02/16 21:07:27;;;;;;;59.63;46.17;;;8.00;99.90;;;;;;5026854;28;20452;-90
2023/02/16 21:10:01;;;;;;;57.57;44.93;;;8.00;99.90;;;;;;5027340;28;20523;-90
2023/02/16 21:12:34;;;;;;;56.10;45.37;;;8.00;99.90;;;;;;5023753;28;20472;-90